createdAt,value
2023-04-29T00:01:13.522Z,7.08
2023-04-29T00:03:46.136Z,7.05
2023-04-29T00:06:28.527Z,7.04
2023-04-29T00:09:07.623Z,7.02
2023-04-29T00:11:40.381Z,7.01
2023-04-29T00:14:24.509Z,6.99
2023-04-29T00:17:09.421Z,6.97
2023-04-29T00:19:53.581Z,6.95
2023-04-29T00:22:38.386Z,6.92
2023-04-29T00:25:22.714Z,6.91
2023-04-29T00:28:06.608Z,6.90
2023-04-29T00:30:40.366Z,6.89
2023-04-29T00:33:24.167Z,6.88
2023-04-29T00:35:47.928Z,6.90
2023-04-29T00:38:31.696Z,6.90
2023-04-29T00:41:16.156Z,6.91
2023-04-29T00:43:49.032Z,6.91
2023-04-29T00:46:33.197Z,6.91
2023-04-29T00:49:17.345Z,6.92
2023-04-29T00:51:42.036Z,6.94
2023-04-29T00:54:26.077Z,6.93
2023-04-29T00:57:10.205Z,6.93
2023-04-29T00:59:54.650Z,6.91
2023-04-29T01:02:19.677Z,6.89
2023-04-29T01:05:03.882Z,6.88
2023-04-29T01:07:58.747Z,6.86
2023-04-29T01:10:40.140Z,6.84
2023-04-29T01:13:12.482Z,6.83
2023-04-29T01:16:01.674Z,6.81
2023-04-29T01:18:33.329Z,6.81
2023-04-29T01:21:17.645Z,6.81
2023-04-29T01:23:55.714Z,6.80
2023-04-29T01:26:41.203Z,6.80
2023-04-29T01:29:35.110Z,6.79
2023-04-29T01:32:26.692Z,6.77
2023-04-29T01:34:56.698Z,6.76
2023-04-29T01:37:49.391Z,6.76
2023-04-29T01:40:37.685Z,6.75
2023-04-29T01:43:25.149Z,6.74
2023-04-29T01:46:10.428Z,6.73
2023-04-29T01:48:54.866Z,6.71
2023-04-29T01:51:38.826Z,6.68
2023-04-29T01:54:23.112Z,6.66
2023-04-29T01:56:59.990Z,6.63
2023-04-29T01:59:53.030Z,6.61
2023-04-29T02:02:37.472Z,6.60
2023-04-29T02:05:21.514Z,6.59
2023-04-29T02:07:50.203Z,6.58
2023-04-29T02:10:34.434Z,6.58
2023-04-29T02:13:18.127Z,6.56
2023-04-29T02:15:52.139Z,6.55
2023-04-29T02:18:25.018Z,6.54
2023-04-29T02:21:08.817Z,6.54
2023-04-29T02:23:53.902Z,6.52
2023-04-29T02:26:38.483Z,6.51
2023-04-29T02:29:22.239Z,6.50
2023-04-29T02:31:58.937Z,6.50
2023-04-29T02:34:25.340Z,6.50
2023-04-29T02:36:51.693Z,6.49
2023-04-29T02:39:20.156Z,6.49
2023-04-29T02:42:03.995Z,6.48
2023-04-29T02:44:48.032Z,6.46
2023-04-29T02:47:15.014Z,6.44
2023-04-29T02:49:50.530Z,6.43
2023-04-29T02:52:28.239Z,6.42
2023-04-29T02:55:12.441Z,6.41
2023-04-29T02:57:46.088Z,6.40
2023-04-29T03:00:19.978Z,6.39
2023-04-29T03:02:56.982Z,6.38
2023-04-29T03:05:29.918Z,6.38
2023-04-29T03:08:13.603Z,6.39
2023-04-29T03:10:58.320Z,6.39
2023-04-29T03:13:42.103Z,6.39
2023-04-29T03:16:13.932Z,6.39
2023-04-29T03:18:57.853Z,6.38
2023-04-29T03:21:25.821Z,6.38
2023-04-29T03:24:09.508Z,6.38
2023-04-29T03:26:54.320Z,6.39
2023-04-29T03:29:17.964Z,6.39
2023-04-29T03:32:03.326Z,6.40
2023-04-29T03:34:45.463Z,6.41
2023-04-29T03:37:31.759Z,6.42
2023-04-29T03:40:15.695Z,6.43
2023-04-29T03:43:00.599Z,6.44
2023-04-29T03:45:44.296Z,6.46
2023-04-29T03:48:11.856Z,6.48
2023-04-29T03:50:36.834Z,6.50
2023-04-29T03:53:03.972Z,6.53
2023-04-29T03:55:48.331Z,6.55
2023-04-29T03:58:32.474Z,6.57
2023-04-29T04:01:16.599Z,6.58
2023-04-29T04:03:43.503Z,6.61
2023-04-29T04:06:16.495Z,6.63
2023-04-29T04:09:00.410Z,6.67
2023-04-29T04:11:44.340Z,6.69
2023-04-29T04:14:29.213Z,6.72
2023-04-29T04:17:12.841Z,6.75
2023-04-29T04:19:57.070Z,6.78
2023-04-29T04:22:41.035Z,6.83
2023-04-29T04:25:25.302Z,6.89
2023-04-29T04:27:57.020Z,6.92
2023-04-29T04:30:41.111Z,6.99
2023-04-29T04:33:25.453Z,7.06
2023-04-29T04:35:58.454Z,7.15
2023-04-29T04:38:34.854Z,7.25
2023-04-29T04:41:18.691Z,7.39
2023-04-29T04:43:54.278Z,7.54
2023-04-29T04:46:41.985Z,7.74
2023-04-29T04:49:25.671Z,8.17
2023-04-29T04:52:09.303Z,8.92
2023-04-29T04:54:53.043Z,9.66
2023-04-29T04:57:37.404Z,10.15
2023-04-29T05:00:21.546Z,10.33
2023-04-29T05:02:59.261Z,10.40
2023-04-29T05:05:43.338Z,10.39
2023-04-29T05:08:07.090Z,10.29
2023-04-29T05:10:37.817Z,10.24
2023-04-29T05:13:22.050Z,10.21
2023-04-29T05:16:07.032Z,10.13
2023-04-29T05:18:40.726Z,10.03
2023-04-29T05:21:04.904Z,10.00
2023-04-29T05:23:37.833Z,9.98
2023-04-29T05:26:22.000Z,10.13
2023-04-29T05:29:06.220Z,10.42
2023-04-29T05:31:51.052Z,11.17
2023-04-29T05:34:15.645Z,12.39
2023-04-29T05:36:42.280Z,13.59
2023-04-29T05:39:06.182Z,14.57
2023-04-29T05:41:29.796Z,15.58
2023-04-29T05:44:06.748Z,16.66
2023-04-29T05:46:30.451Z,17.58
2023-04-29T05:48:54.270Z,18.24
2023-04-29T05:51:18.527Z,18.86
2023-04-29T05:53:42.196Z,19.52
2023-04-29T05:56:07.912Z,19.97
2023-04-29T05:58:31.783Z,20.22
2023-04-29T06:00:55.458Z,20.47
2023-04-29T06:03:19.038Z,20.64
2023-04-29T06:05:42.978Z,20.89
2023-04-29T06:08:13.237Z,21.29
2023-04-29T06:10:41.527Z,21.84
2023-04-29T06:13:06.430Z,22.44
2023-04-29T06:15:30.056Z,22.89
2023-04-29T06:17:53.871Z,23.18
2023-04-29T06:20:18.340Z,23.40
2023-04-29T06:22:41.909Z,23.54
2023-04-29T06:25:07.703Z,23.72
2023-04-29T06:27:42.312Z,23.75
2023-04-29T06:30:08.668Z,23.63
2023-04-29T06:32:32.241Z,23.72
2023-04-29T06:34:56.223Z,23.80
2023-04-29T06:37:28.639Z,23.86
2023-04-29T06:40:27.737Z,24.39
2023-04-29T06:43:11.417Z,24.85
2023-04-29T06:46:01.331Z,24.97
2023-04-29T06:48:31.263Z,25.35
2023-04-29T06:50:56.272Z,25.60
2023-04-29T06:53:20.597Z,25.53
2023-04-29T06:55:45.740Z,25.52
2023-04-29T06:58:09.204Z,25.08
2023-04-29T07:00:33.188Z,24.47
2023-04-29T07:02:56.692Z,23.94
2023-04-29T07:05:20.202Z,23.25
2023-04-29T07:07:43.848Z,22.64
2023-04-29T07:10:08.543Z,22.54
2023-04-29T07:12:31.997Z,22.62
2023-04-29T07:14:55.423Z,22.73
2023-04-29T07:17:18.987Z,22.54
2023-04-29T07:19:43.880Z,22.34
2023-04-29T07:22:08.097Z,22.44
2023-04-29T07:24:31.606Z,22.73
2023-04-29T07:26:55.061Z,23.05
2023-04-29T07:29:18.827Z,23.34
2023-04-29T07:31:42.215Z,23.55
2023-04-29T07:34:05.794Z,24.01
2023-04-29T07:36:29.492Z,24.56
2023-04-29T07:38:52.962Z,24.79
2023-04-29T07:41:16.878Z,25.08
2023-04-29T07:43:42.197Z,25.62
2023-04-29T07:46:06.300Z,26.06
2023-04-29T07:48:29.905Z,26.24
2023-04-29T07:50:54.087Z,26.26
2023-04-29T07:53:17.919Z,26.03
2023-04-29T07:55:41.379Z,25.57
2023-04-29T07:58:05.666Z,25.24
2023-04-29T08:00:29.252Z,25.18
2023-04-29T08:02:53.334Z,25.06
2023-04-29T08:05:18.993Z,25.16
2023-04-29T08:07:43.441Z,25.44
2023-04-29T08:10:09.253Z,25.53
2023-04-29T08:12:34.411Z,25.49
2023-04-29T08:14:57.774Z,25.66
2023-04-29T08:17:21.224Z,25.70
2023-04-29T08:19:45.262Z,25.47
2023-04-29T08:22:10.567Z,25.29
2023-04-29T08:24:34.642Z,25.19
2023-04-29T08:26:58.721Z,24.90
2023-04-29T08:29:22.186Z,24.72
2023-04-29T08:31:46.297Z,24.61
2023-04-29T08:34:10.187Z,24.64
2023-04-29T08:36:34.009Z,24.65
2023-04-29T08:38:57.410Z,24.51
2023-04-29T08:41:21.686Z,24.26
2023-04-29T08:43:45.127Z,24.01
2023-04-29T08:46:09.665Z,23.88
2023-04-29T08:48:34.134Z,23.75
2023-04-29T08:50:58.864Z,23.60
2023-04-29T08:53:22.463Z,23.50
2023-04-29T08:55:47.455Z,23.44
2023-04-29T08:58:11.868Z,23.34
2023-04-29T09:00:36.842Z,23.47
2023-04-29T09:03:04.714Z,23.62
2023-04-29T09:05:29.784Z,23.73
2023-04-29T09:07:53.474Z,23.37
2023-04-29T09:10:18.119Z,22.81
2023-04-29T09:12:41.441Z,22.30
2023-04-29T09:15:06.293Z,21.84
2023-04-29T09:17:44.048Z,21.46
2023-04-29T09:20:27.055Z,21.20
2023-04-29T09:22:52.074Z,21.18
2023-04-29T09:25:16.142Z,21.27
2023-04-29T09:27:39.498Z,21.16
2023-04-29T09:30:03.474Z,20.82
2023-04-29T09:32:26.937Z,20.40
2023-04-29T09:34:50.728Z,20.12
2023-04-29T09:37:27.062Z,20.00
2023-04-29T09:39:50.540Z,19.81
2023-04-29T09:42:14.380Z,19.88
2023-04-29T09:44:42.218Z,20.06
2023-04-29T09:47:07.385Z,20.26
2023-04-29T09:49:32.985Z,20.53
2023-04-29T09:51:58.444Z,20.61
2023-04-29T09:54:23.124Z,20.69
2023-04-29T09:56:51.187Z,20.88
2023-04-29T09:59:14.674Z,21.05
2023-04-29T10:01:38.318Z,21.32
2023-04-29T10:04:03.448Z,21.53
2023-04-29T10:06:28.527Z,21.52
2023-04-29T10:08:52.333Z,21.52
2023-04-29T10:11:17.363Z,21.65
2023-04-29T10:13:43.710Z,21.68
2023-04-29T10:16:15.360Z,21.60
2023-04-29T10:18:45.052Z,21.44
2023-04-29T10:21:09.036Z,21.43
2023-04-29T10:23:34.052Z,21.45
2023-04-29T10:26:00.577Z,21.53
2023-04-29T10:28:25.982Z,21.54
2023-04-29T10:30:51.558Z,21.61
2023-04-29T10:33:17.533Z,21.56
2023-04-29T10:35:44.507Z,21.30
2023-04-29T10:38:17.212Z,21.27
2023-04-29T10:40:46.394Z,21.39
2023-04-29T10:43:10.028Z,21.18
2023-04-29T10:45:35.657Z,20.85
2023-04-29T10:48:13.538Z,20.54
2023-04-29T10:51:01.430Z,20.15
2023-04-29T10:53:25.182Z,19.92
2023-04-29T10:55:53.290Z,19.74
2023-04-29T10:58:42.100Z,19.53
2023-04-29T11:01:07.625Z,19.27
2023-04-29T11:03:54.391Z,19.12
2023-04-29T11:06:17.975Z,19.11
2023-04-29T11:08:42.759Z,19.19
2023-04-29T11:11:17.244Z,19.23
2023-04-29T11:13:41.107Z,19.28
2023-04-29T11:16:06.256Z,19.28
2023-04-29T11:18:34.153Z,19.20
2023-04-29T11:21:13.890Z,19.20
2023-04-29T11:23:41.233Z,19.22
2023-04-29T11:26:05.022Z,19.15
2023-04-29T11:28:30.137Z,19.07
2023-04-29T11:30:54.070Z,18.97
2023-04-29T11:33:21.191Z,18.91
2023-04-29T11:35:44.834Z,18.93
2023-04-29T11:38:09.901Z,19.00
2023-04-29T11:40:33.991Z,19.07
2023-04-29T11:42:57.528Z,19.10
2023-04-29T11:45:20.925Z,19.15
2023-04-29T11:47:46.004Z,19.04
2023-04-29T11:50:10.634Z,18.84
2023-04-29T11:52:36.924Z,18.80
2023-04-29T11:55:00.793Z,18.96
2023-04-29T11:57:24.454Z,19.03
2023-04-29T11:59:48.018Z,19.02
2023-04-29T12:02:14.229Z,18.89
2023-04-29T12:04:45.250Z,18.81
2023-04-29T12:07:11.317Z,18.87
2023-04-29T12:09:44.054Z,18.88
2023-04-29T12:12:08.204Z,18.75
2023-04-29T12:14:41.470Z,18.69
2023-04-29T12:17:06.264Z,18.61
2023-04-29T12:19:30.020Z,18.53
2023-04-29T12:21:54.012Z,18.59
2023-04-29T12:24:17.342Z,18.67
2023-04-29T12:26:41.863Z,18.57
2023-04-29T12:29:05.732Z,18.45
2023-04-29T12:31:35.859Z,18.29
2023-04-29T12:33:59.240Z,18.11
2023-04-29T12:36:29.447Z,18.09
2023-04-29T12:38:55.253Z,18.24
2023-04-29T12:41:20.572Z,18.32
2023-04-29T12:43:44.440Z,18.39
2023-04-29T12:46:09.367Z,18.51
2023-04-29T12:48:53.972Z,18.68
2023-04-29T12:51:17.443Z,18.75
2023-04-29T12:53:40.912Z,18.74
2023-04-29T12:56:06.218Z,18.78
2023-04-29T12:58:31.195Z,18.73
2023-04-29T13:00:55.152Z,18.53
2023-04-29T13:03:22.681Z,18.33
2023-04-29T13:05:52.168Z,18.16
2023-04-29T13:08:15.943Z,18.05
2023-04-29T13:10:39.502Z,18.05
2023-04-29T13:13:08.946Z,18.03
2023-04-29T13:15:33.698Z,18.02
2023-04-29T13:17:58.144Z,18.02
2023-04-29T13:20:23.999Z,18.07
2023-04-29T13:22:47.780Z,18.09
2023-04-29T13:25:12.187Z,18.00
2023-04-29T13:27:35.693Z,17.94
2023-04-29T13:29:59.433Z,17.92
2023-04-29T13:32:24.706Z,17.96
2023-04-29T13:34:48.373Z,18.02
2023-04-29T13:37:14.438Z,18.08
2023-04-29T13:39:38.620Z,18.10
2023-04-29T13:42:03.312Z,18.15
2023-04-29T13:44:48.628Z,18.17
2023-04-29T13:47:18.146Z,18.22
2023-04-29T13:53:18.556Z,18.21
2023-04-29T13:55:39.500Z,18.15
2023-04-29T14:00:55.088Z,18.06
2023-04-29T14:03:09.301Z,18.02
2023-04-29T14:05:33.168Z,18.01
2023-04-29T14:07:57.067Z,18.00
2023-04-29T14:10:23.027Z,18.01
2023-04-29T14:12:46.656Z,18.01
2023-04-29T14:15:11.903Z,18.00
2023-04-29T14:17:44.807Z,18.03
2023-04-29T14:20:26.386Z,17.99
2023-04-29T14:22:50.253Z,17.97
2023-04-29T14:25:14.024Z,17.98
2023-04-29T14:27:37.662Z,17.97
2023-04-29T14:30:01.670Z,17.95
2023-04-29T14:32:25.078Z,17.93
2023-04-29T14:34:56.165Z,17.92
2023-04-29T14:37:20.078Z,17.86
2023-04-29T14:39:43.922Z,17.80
2023-04-29T14:42:07.302Z,17.77
2023-04-29T14:44:30.938Z,17.75
2023-04-29T14:46:54.537Z,17.73
2023-04-29T14:49:18.223Z,17.71
2023-04-29T14:51:42.155Z,17.69
2023-04-29T14:54:05.725Z,17.66
2023-04-29T14:56:29.430Z,17.63
2023-04-29T14:58:56.217Z,17.63
2023-04-29T15:01:19.839Z,17.62
2023-04-29T15:03:44.799Z,17.63
2023-04-29T15:06:09.434Z,17.61
2023-04-29T15:08:32.981Z,17.59
2023-04-29T15:10:59.485Z,17.61
2023-04-29T15:13:23.363Z,17.63
2023-04-29T15:15:46.765Z,17.63
2023-04-29T15:18:10.444Z,17.59
2023-04-29T15:20:34.378Z,17.56
2023-04-29T15:22:57.872Z,17.57
2023-04-29T15:25:22.073Z,17.56
2023-04-29T15:27:47.228Z,17.55
2023-04-29T15:30:11.275Z,17.49
2023-04-29T15:32:33.913Z,17.46
2023-04-29T15:34:57.033Z,17.40
2023-04-29T15:37:30.118Z,17.36
2023-04-29T15:39:52.898Z,17.37
2023-04-29T15:42:24.792Z,17.33
2023-04-29T15:44:47.357Z,17.30
2023-04-29T15:47:10.298Z,17.26
2023-04-29T15:49:33.028Z,17.24
2023-04-29T15:51:55.789Z,17.21
2023-04-29T15:54:18.386Z,17.18
2023-04-29T15:57:03.124Z,17.13
2023-04-29T15:59:39.261Z,17.06
2023-04-29T16:02:02.609Z,17.02
2023-04-29T16:04:26.150Z,17.00
2023-04-29T16:06:49.027Z,16.97
2023-04-29T16:09:11.770Z,16.95
2023-04-29T16:11:44.230Z,16.93
2023-04-29T16:14:06.812Z,16.91
2023-04-29T16:16:30.168Z,16.90
2023-04-29T16:19:00.847Z,16.88
2023-04-29T16:21:23.534Z,16.87
2023-04-29T16:23:46.484Z,16.85
2023-04-29T16:26:09.335Z,16.85
2023-04-29T16:28:31.885Z,16.84
2023-04-29T16:30:54.433Z,16.83
2023-04-29T16:33:24.988Z,16.81
2023-04-29T16:35:57.622Z,16.79
2023-04-29T16:38:20.340Z,16.76
2023-04-29T16:40:43.342Z,16.73
2023-04-29T16:43:05.803Z,16.70
2023-04-29T16:45:31.221Z,16.67
2023-04-29T16:47:54.374Z,16.63
2023-04-29T16:50:17.218Z,16.60
2023-04-29T16:52:39.746Z,16.59
2023-04-29T16:55:03.083Z,16.55
2023-04-29T16:57:25.884Z,16.54
2023-04-29T16:59:48.551Z,16.53
2023-04-29T17:02:12.016Z,16.50
2023-04-29T17:04:34.840Z,16.47
2023-04-29T17:06:58.063Z,16.46
2023-04-29T17:09:23.365Z,16.44
2023-04-29T17:11:45.898Z,16.42
2023-04-29T17:14:08.653Z,16.40
2023-04-29T17:16:32.368Z,16.39
2023-04-29T17:18:57.824Z,16.37
2023-04-29T17:21:22.566Z,16.38
2023-04-29T17:23:45.192Z,16.37
2023-04-29T17:26:07.821Z,16.35
2023-04-29T17:28:30.504Z,16.31
2023-04-29T17:30:59.619Z,16.28
2023-04-29T17:33:35.383Z,16.26
2023-04-29T17:36:18.402Z,16.22
2023-04-29T17:38:41.386Z,16.19
2023-04-29T17:41:04.046Z,16.15
2023-04-29T17:43:27.118Z,16.13
2023-04-29T17:45:49.755Z,16.11
2023-04-29T17:48:14.174Z,16.07
2023-04-29T17:50:38.072Z,16.03
2023-04-29T17:53:00.636Z,15.98
2023-04-29T17:55:23.578Z,15.94
2023-04-29T17:57:58.028Z,15.87
2023-04-29T18:00:41.098Z,15.83
2023-04-29T18:03:05.066Z,15.79
2023-04-29T18:05:28.251Z,15.73
2023-04-29T18:07:50.843Z,15.67
2023-04-29T18:10:22.426Z,15.59
2023-04-29T18:12:45.449Z,15.52
2023-04-29T18:15:09.581Z,15.46
2023-04-29T18:17:33.124Z,15.39
2023-04-29T18:19:55.877Z,15.33
2023-04-29T18:22:18.668Z,15.30
2023-04-29T18:24:41.427Z,15.28
2023-04-29T18:27:04.085Z,15.25
2023-04-29T18:29:29.334Z,15.21
2023-04-29T18:31:54.235Z,15.18
2023-04-29T18:34:16.982Z,15.15
2023-04-29T18:36:39.458Z,15.13
2023-04-29T18:39:02.112Z,15.10
2023-04-29T18:41:24.974Z,15.09
2023-04-29T18:43:47.472Z,15.09
2023-04-29T18:46:10.190Z,15.08
2023-04-29T18:48:33.715Z,15.07
2023-04-29T18:51:09.373Z,15.04
2023-04-29T18:53:32.225Z,15.02
2023-04-29T18:55:55.158Z,14.99
2023-04-29T18:58:27.426Z,14.95
2023-04-29T19:00:50.363Z,14.92
2023-04-29T19:03:12.994Z,14.89
2023-04-29T19:05:35.500Z,14.87
2023-04-29T19:08:06.282Z,14.85
2023-04-29T19:10:29.105Z,14.82
2023-04-29T19:13:12.231Z,14.79
2023-04-29T19:15:34.986Z,14.77
2023-04-29T19:17:57.691Z,14.76
2023-04-29T19:20:20.739Z,14.74
2023-04-29T19:22:43.486Z,14.73
2023-04-29T19:25:07.286Z,14.72
2023-04-29T19:27:30.102Z,14.71
2023-04-29T19:29:52.911Z,14.71
2023-04-29T19:32:15.840Z,14.69
2023-04-29T19:34:38.336Z,14.68
2023-04-29T19:37:01.017Z,14.66
2023-04-29T19:39:23.645Z,14.65
2023-04-29T19:41:46.194Z,14.62
2023-04-29T19:44:09.064Z,14.59
2023-04-29T19:46:31.882Z,14.56
2023-04-29T19:49:04.104Z,14.51
2023-04-29T19:51:30.352Z,14.47
2023-04-29T19:54:13.512Z,14.42
2023-04-29T19:56:39.682Z,14.38
2023-04-29T19:59:02.425Z,14.35
2023-04-29T20:01:25.277Z,14.33
2023-04-29T20:03:49.037Z,14.29
2023-04-29T20:06:34.310Z,14.26
2023-04-29T20:09:08.840Z,14.24
2023-04-29T20:11:31.597Z,14.21
2023-04-29T20:14:03.200Z,14.18
2023-04-29T20:16:29.349Z,14.16
2023-04-29T20:18:51.884Z,14.13
2023-04-29T20:21:24.812Z,14.10
2023-04-29T20:24:00.647Z,14.08
2023-04-29T20:26:23.178Z,14.08
2023-04-29T20:28:54.658Z,14.09
2023-04-29T20:31:32.668Z,14.12
2023-04-29T20:33:55.284Z,14.15
2023-04-29T20:36:18.340Z,14.17
2023-04-29T20:38:41.844Z,14.18
2023-04-29T20:41:13.299Z,14.19
2023-04-29T20:43:49.072Z,14.17
2023-04-29T20:46:26.145Z,14.14
2023-04-29T20:48:57.179Z,14.12
2023-04-29T20:51:40.276Z,14.08
2023-04-29T20:54:13.381Z,14.04
2023-04-29T20:56:38.775Z,14.01
2023-04-29T20:59:02.344Z,13.99
2023-04-29T21:01:25.272Z,13.96
2023-04-29T21:03:48.047Z,13.93
2023-04-29T21:06:31.627Z,13.87
2023-04-29T21:09:05.627Z,13.83
2023-04-29T21:11:28.306Z,13.79
2023-04-29T21:13:51.448Z,13.76
2023-04-29T21:16:17.455Z,13.71
2023-04-29T21:19:00.810Z,13.66
2023-04-29T21:21:32.496Z,13.60
2023-04-29T21:23:58.365Z,13.56
2023-04-29T21:26:28.839Z,13.51
2023-04-29T21:28:51.588Z,13.46
2023-04-29T21:31:15.743Z,13.41
2023-04-29T21:33:39.389Z,13.35
2023-04-29T21:36:01.898Z,13.28
2023-04-29T21:38:24.446Z,13.24
2023-04-29T21:41:09.526Z,13.17
2023-04-29T21:43:32.818Z,13.13
2023-04-29T21:45:55.715Z,13.10
2023-04-29T21:48:20.130Z,13.06
2023-04-29T21:50:45.399Z,13.03
2023-04-29T21:53:27.194Z,12.99
2023-04-29T21:55:59.031Z,12.96
2023-04-29T21:58:21.666Z,12.93
2023-04-29T22:00:59.813Z,12.90
2023-04-29T22:03:28.211Z,12.88
2023-04-29T22:06:11.272Z,12.87
2023-04-29T22:08:36.218Z,12.86
2023-04-29T22:11:01.551Z,12.85
2023-04-29T22:13:35.731Z,12.81
2023-04-29T22:16:01.274Z,12.80
2023-04-29T22:18:26.740Z,12.78
2023-04-29T22:20:59.575Z,12.78
2023-04-29T22:23:24.702Z,12.78
2023-04-29T22:25:54.476Z,12.79
2023-04-29T22:28:35.011Z,12.80
2023-04-29T22:30:59.888Z,12.81
2023-04-29T22:33:24.675Z,12.84
2023-04-29T22:36:07.889Z,12.86
2023-04-29T22:38:50.707Z,12.87
2023-04-29T22:41:34.137Z,12.88
2023-04-29T22:44:17.248Z,12.90
2023-04-29T22:46:40.157Z,12.92
2023-04-29T22:49:02.749Z,12.94
2023-04-29T22:51:46.062Z,12.96
2023-04-29T22:54:11.207Z,12.97
2023-04-29T22:56:33.923Z,12.96
2023-04-29T22:58:56.719Z,12.95
2023-04-29T23:01:19.368Z,12.94
2023-04-29T23:03:44.158Z,12.98
2023-04-29T23:06:09.958Z,13.01
2023-04-29T23:08:32.618Z,13.02
2023-04-29T23:10:55.358Z,13.01
2023-04-29T23:13:21.181Z,13.00
2023-04-29T23:16:04.729Z,12.98
2023-04-29T23:18:37.175Z,12.96
2023-04-29T23:20:59.961Z,12.96
2023-04-29T23:23:42.778Z,12.91
2023-04-29T23:26:05.386Z,12.88
2023-04-29T23:28:31.040Z,12.84
2023-04-29T23:30:56.761Z,12.82
2023-04-29T23:33:39.649Z,12.78
2023-04-29T23:36:13.261Z,12.73
2023-04-29T23:38:45.023Z,12.71
2023-04-29T23:41:07.718Z,12.71
2023-04-29T23:43:33.017Z,12.70
2023-04-29T23:45:55.735Z,12.70
2023-04-29T23:48:18.807Z,12.70
2023-04-29T23:51:01.710Z,12.69
2023-04-29T23:53:44.502Z,12.65
2023-04-29T23:56:16.109Z,12.59
2023-04-29T23:58:59.019Z,12.57
